sensor_id;sensor_type;location;lat;lon;timestamp;P1;durP1;ratioP1;P2;durP2;ratioP2
24153;SDS011;12312;53.362;-1.518;2022-08-19T00:00:30;11.90;;;9.07;;
24153;SDS011;12312;53.362;-1.518;2022-08-19T00:02:56;10.90;;;9.45;;
24153;SDS011;12312;53.362;-1.518;2022-08-19T00:05:22;12.00;;;8.68;;
24153;SDS011;12312;53.362;-1.518;2022-08-19T00:07:48;10.82;;;8.35;;
24153;SDS011;12312;53.362;-1.518;2022-08-19T00:10:15;10.60;;;7.75;;
24153;SDS011;12312;53.362;-1.518;2022-08-19T00:12:43;9.82;;;7.93;;
24153;SDS011;12312;53.362;-1.518;2022-08-19T00:15:15;10.63;;;6.88;;
24153;SDS011;12312;53.362;-1.518;2022-08-19T00:17:43;10.48;;;6.00;;
24153;SDS011;12312;53.362;-1.518;2022-08-19T00:20:14;10.02;;;5.80;;
24153;SDS011;12312;53.362;-1.518;2022-08-19T00:22:42;8.85;;;5.05;;
24153;SDS011;12312;53.362;-1.518;2022-08-19T00:25:09;7.85;;;5.00;;
24153;SDS011;12312;53.362;-1.518;2022-08-19T00:27:36;6.72;;;4.25;;
24153;SDS011;12312;53.362;-1.518;2022-08-19T00:30:02;7.68;;;3.13;;
24153;SDS011;12312;53.362;-1.518;2022-08-19T00:32:29;9.18;;;2.97;;
24153;SDS011;12312;53.362;-1.518;2022-08-19T00:34:55;10.88;;;3.10;;
24153;SDS011;12312;53.362;-1.518;2022-08-19T00:37:21;9.23;;;2.70;;
24153;SDS011;12312;53.362;-1.518;2022-08-19T00:39:48;11.38;;;3.35;;
24153;SDS011;12312;53.362;-1.518;2022-08-19T00:42:16;10.00;;;2.97;;
24153;SDS011;12312;53.362;-1.518;2022-08-19T00:44:44;12.93;;;3.38;;
24153;SDS011;12312;53.362;-1.518;2022-08-19T00:47:09;14.93;;;4.10;;
24153;SDS011;12312;53.362;-1.518;2022-08-19T00:49:52;19.20;;;3.70;;
24153;SDS011;12312;53.362;-1.518;2022-08-19T00:52:23;17.75;;;3.67;;
24153;SDS011;12312;53.362;-1.518;2022-08-19T00:54:54;12.55;;;3.47;;
24153;SDS011;12312;53.362;-1.518;2022-08-19T00:57:23;14.82;;;3.03;;
24153;SDS011;12312;53.362;-1.518;2022-08-19T01:00:04;10.23;;;3.00;;
24153;SDS011;12312;53.362;-1.518;2022-08-19T01:02:56;14.35;;;3.40;;
24153;SDS011;12312;53.362;-1.518;2022-08-19T01:05:23;8.40;;;3.50;;
24153;SDS011;12312;53.362;-1.518;2022-08-19T01:07:52;15.18;;;3.40;;
24153;SDS011;12312;53.362;-1.518;2022-08-19T01:10:20;13.73;;;3.30;;
24153;SDS011;12312;53.362;-1.518;2022-08-19T01:12:49;16.75;;;3.13;;
24153;SDS011;12312;53.362;-1.518;2022-08-19T01:15:18;13.90;;;3.38;;
24153;SDS011;12312;53.362;-1.518;2022-08-19T01:17:46;17.58;;;3.10;;
24153;SDS011;12312;53.362;-1.518;2022-08-19T01:20:19;19.70;;;3.83;;
24153;SDS011;12312;53.362;-1.518;2022-08-19T01:22:53;13.40;;;3.25;;
24153;SDS011;12312;53.362;-1.518;2022-08-19T01:25:25;14.93;;;3.35;;
24153;SDS011;12312;53.362;-1.518;2022-08-19T01:27:56;16.02;;;3.05;;
24153;SDS011;12312;53.362;-1.518;2022-08-19T01:30:24;18.90;;;3.15;;
24153;SDS011;12312;53.362;-1.518;2022-08-19T01:32:52;12.70;;;3.08;;
24153;SDS011;12312;53.362;-1.518;2022-08-19T01:35:19;11.38;;;2.83;;
24153;SDS011;12312;53.362;-1.518;2022-08-19T01:37:51;15.43;;;3.30;;
24153;SDS011;12312;53.362;-1.518;2022-08-19T01:40:26;16.52;;;2.88;;
24153;SDS011;12312;53.362;-1.518;2022-08-19T01:42:54;15.23;;;3.03;;
24153;SDS011;12312;53.362;-1.518;2022-08-19T01:45:21;12.63;;;3.08;;
24153;SDS011;12312;53.362;-1.518;2022-08-19T01:47:49;10.63;;;2.85;;
24153;SDS011;12312;53.362;-1.518;2022-08-19T01:50:15;20.15;;;2.97;;
24153;SDS011;12312;53.362;-1.518;2022-08-19T01:52:42;12.75;;;3.15;;
24153;SDS011;12312;53.362;-1.518;2022-08-19T01:55:11;16.13;;;3.58;;
24153;SDS011;12312;53.362;-1.518;2022-08-19T01:57:41;13.55;;;3.42;;
24153;SDS011;12312;53.362;-1.518;2022-08-19T02:00:11;15.48;;;3.47;;
24153;SDS011;12312;53.362;-1.518;2022-08-19T02:02:40;14.43;;;3.25;;
24153;SDS011;12312;53.362;-1.518;2022-08-19T02:05:06;13.70;;;3.13;;
24153;SDS011;12312;53.362;-1.518;2022-08-19T02:07:33;14.65;;;3.22;;
24153;SDS011;12312;53.362;-1.518;2022-08-19T02:10:01;19.30;;;4.45;;
24153;SDS011;12312;53.362;-1.518;2022-08-19T02:12:28;17.65;;;3.15;;
24153;SDS011;12312;53.362;-1.518;2022-08-19T02:14:55;14.43;;;3.58;;
24153;SDS011;12312;53.362;-1.518;2022-08-19T02:17:21;14.18;;;3.13;;
24153;SDS011;12312;53.362;-1.518;2022-08-19T02:19:46;16.05;;;3.55;;
24153;SDS011;12312;53.362;-1.518;2022-08-19T02:22:14;17.77;;;3.72;;
24153;SDS011;12312;53.362;-1.518;2022-08-19T02:24:40;16.10;;;3.20;;
24153;SDS011;12312;53.362;-1.518;2022-08-19T02:27:06;15.75;;;3.40;;
24153;SDS011;12312;53.362;-1.518;2022-08-19T02:29:31;12.95;;;2.97;;
24153;SDS011;12312;53.362;-1.518;2022-08-19T02:31:57;20.75;;;3.25;;
24153;SDS011;12312;53.362;-1.518;2022-08-19T02:34:23;17.17;;;3.28;;
24153;SDS011;12312;53.362;-1.518;2022-08-19T02:36:50;21.13;;;3.30;;
24153;SDS011;12312;53.362;-1.518;2022-08-19T02:39:17;16.55;;;2.30;;
24153;SDS011;12312;53.362;-1.518;2022-08-19T02:41:43;13.48;;;3.33;;
24153;SDS011;12312;53.362;-1.518;2022-08-19T02:44:09;18.42;;;2.90;;
24153;SDS011;12312;53.362;-1.518;2022-08-19T02:46:34;18.75;;;3.63;;
24153;SDS011;12312;53.362;-1.518;2022-08-19T02:49:02;17.70;;;3.33;;
24153;SDS011;12312;53.362;-1.518;2022-08-19T02:51:37;16.02;;;3.25;;
24153;SDS011;12312;53.362;-1.518;2022-08-19T02:54:05;17.98;;;3.17;;
24153;SDS011;12312;53.362;-1.518;2022-08-19T02:56:33;12.30;;;2.95;;
24153;SDS011;12312;53.362;-1.518;2022-08-19T02:58:59;24.83;;;2.92;;
24153;SDS011;12312;53.362;-1.518;2022-08-19T03:01:26;12.82;;;2.72;;
24153;SDS011;12312;53.362;-1.518;2022-08-19T03:03:57;23.13;;;3.38;;
24153;SDS011;12312;53.362;-1.518;2022-08-19T03:06:26;16.63;;;2.75;;
24153;SDS011;12312;53.362;-1.518;2022-08-19T03:08:52;16.23;;;2.45;;
24153;SDS011;12312;53.362;-1.518;2022-08-19T03:11:20;19.70;;;2.72;;
24153;SDS011;12312;53.362;-1.518;2022-08-19T03:13:50;15.07;;;2.88;;
24153;SDS011;12312;53.362;-1.518;2022-08-19T03:16:16;17.38;;;2.80;;
24153;SDS011;12312;53.362;-1.518;2022-08-19T03:18:43;16.90;;;3.05;;
24153;SDS011;12312;53.362;-1.518;2022-08-19T03:21:09;21.30;;;3.17;;
24153;SDS011;12312;53.362;-1.518;2022-08-19T03:23:35;18.35;;;2.63;;
24153;SDS011;12312;53.362;-1.518;2022-08-19T03:26:03;15.10;;;3.22;;
24153;SDS011;12312;53.362;-1.518;2022-08-19T03:28:30;22.92;;;3.40;;
24153;SDS011;12312;53.362;-1.518;2022-08-19T03:31:00;17.20;;;3.03;;
24153;SDS011;12312;53.362;-1.518;2022-08-19T03:33:30;17.77;;;3.03;;
24153;SDS011;12312;53.362;-1.518;2022-08-19T03:36:17;17.02;;;3.08;;
24153;SDS011;12312;53.362;-1.518;2022-08-19T03:38:49;19.35;;;3.20;;
24153;SDS011;12312;53.362;-1.518;2022-08-19T03:41:19;16.42;;;3.92;;
24153;SDS011;12312;53.362;-1.518;2022-08-19T03:43:46;20.95;;;3.17;;
24153;SDS011;12312;53.362;-1.518;2022-08-19T03:46:17;17.23;;;2.95;;
24153;SDS011;12312;53.362;-1.518;2022-08-19T03:48:48;16.15;;;2.55;;
24153;SDS011;12312;53.362;-1.518;2022-08-19T03:51:29;19.17;;;3.35;;
24153;SDS011;12312;53.362;-1.518;2022-08-19T03:53:57;16.33;;;3.40;;
24153;SDS011;12312;53.362;-1.518;2022-08-19T03:56:25;24.42;;;4.00;;
24153;SDS011;12312;53.362;-1.518;2022-08-19T03:58:53;23.25;;;4.15;;
24153;SDS011;12312;53.362;-1.518;2022-08-19T04:01:22;18.70;;;3.30;;
24153;SDS011;12312;53.362;-1.518;2022-08-19T04:03:49;23.00;;;3.00;;
24153;SDS011;12312;53.362;-1.518;2022-08-19T04:08:48;22.83;;;3.10;;
24153;SDS011;12312;53.362;-1.518;2022-08-19T04:11:17;21.00;;;3.67;;
24153;SDS011;12312;53.362;-1.518;2022-08-19T04:13:48;23.70;;;4.28;;
24153;SDS011;12312;53.362;-1.518;2022-08-19T04:16:16;29.00;;;4.15;;
24153;SDS011;12312;53.362;-1.518;2022-08-19T04:18:43;27.60;;;3.90;;
24153;SDS011;12312;53.362;-1.518;2022-08-19T04:21:14;23.40;;;3.78;;
24153;SDS011;12312;53.362;-1.518;2022-08-19T04:23:41;22.88;;;3.55;;
24153;SDS011;12312;53.362;-1.518;2022-08-19T04:26:07;27.88;;;4.47;;
24153;SDS011;12312;53.362;-1.518;2022-08-19T04:28:37;23.55;;;3.63;;
24153;SDS011;12312;53.362;-1.518;2022-08-19T04:31:03;15.45;;;3.47;;
24153;SDS011;12312;53.362;-1.518;2022-08-19T04:33:28;21.05;;;3.58;;
24153;SDS011;12312;53.362;-1.518;2022-08-19T04:35:54;19.50;;;3.35;;
24153;SDS011;12312;53.362;-1.518;2022-08-19T04:38:20;24.08;;;4.07;;
24153;SDS011;12312;53.362;-1.518;2022-08-19T04:40:50;23.88;;;3.53;;
24153;SDS011;12312;53.362;-1.518;2022-08-19T04:43:36;19.48;;;3.78;;
24153;SDS011;12312;53.362;-1.518;2022-08-19T04:46:04;21.30;;;3.88;;
24153;SDS011;12312;53.362;-1.518;2022-08-19T04:48:34;16.20;;;3.08;;
24153;SDS011;12312;53.362;-1.518;2022-08-19T04:51:00;22.42;;;3.80;;
24153;SDS011;12312;53.362;-1.518;2022-08-19T04:53:31;18.85;;;3.08;;
24153;SDS011;12312;53.362;-1.518;2022-08-19T04:55:58;23.23;;;3.78;;
24153;SDS011;12312;53.362;-1.518;2022-08-19T04:58:28;23.33;;;3.53;;
24153;SDS011;12312;53.362;-1.518;2022-08-19T05:00:53;16.58;;;3.03;;
24153;SDS011;12312;53.362;-1.518;2022-08-19T05:03:20;15.38;;;2.80;;
24153;SDS011;12312;53.362;-1.518;2022-08-19T05:05:46;16.98;;;2.92;;
24153;SDS011;12312;53.362;-1.518;2022-08-19T05:08:18;21.80;;;3.40;;
24153;SDS011;12312;53.362;-1.518;2022-08-19T05:10:48;22.33;;;4.10;;
24153;SDS011;12312;53.362;-1.518;2022-08-19T05:13:16;18.33;;;3.88;;
24153;SDS011;12312;53.362;-1.518;2022-08-19T05:15:44;22.75;;;3.20;;
24153;SDS011;12312;53.362;-1.518;2022-08-19T05:18:18;18.35;;;3.33;;
24153;SDS011;12312;53.362;-1.518;2022-08-19T05:21:05;22.13;;;3.17;;
24153;SDS011;12312;53.362;-1.518;2022-08-19T05:23:53;18.65;;;3.22;;
24153;SDS011;12312;53.362;-1.518;2022-08-19T05:26:20;19.85;;;3.00;;
24153;SDS011;12312;53.362;-1.518;2022-08-19T05:28:46;14.43;;;3.70;;
24153;SDS011;12312;53.362;-1.518;2022-08-19T05:31:13;20.38;;;3.58;;
24153;SDS011;12312;53.362;-1.518;2022-08-19T05:33:39;19.42;;;2.92;;
24153;SDS011;12312;53.362;-1.518;2022-08-19T05:36:05;17.58;;;3.35;;
24153;SDS011;12312;53.362;-1.518;2022-08-19T05:38:32;27.30;;;3.97;;
24153;SDS011;12312;53.362;-1.518;2022-08-19T05:40:59;25.48;;;3.25;;
24153;SDS011;12312;53.362;-1.518;2022-08-19T05:43:25;17.52;;;4.25;;
24153;SDS011;12312;53.362;-1.518;2022-08-19T05:45:50;23.35;;;3.10;;
24153;SDS011;12312;53.362;-1.518;2022-08-19T05:48:16;23.60;;;3.15;;
24153;SDS011;12312;53.362;-1.518;2022-08-19T05:50:45;19.05;;;2.75;;
24153;SDS011;12312;53.362;-1.518;2022-08-19T05:53:12;15.48;;;3.58;;
24153;SDS011;12312;53.362;-1.518;2022-08-19T05:55:38;13.60;;;3.28;;
24153;SDS011;12312;53.362;-1.518;2022-08-19T05:58:04;18.25;;;3.22;;
24153;SDS011;12312;53.362;-1.518;2022-08-19T06:00:33;17.67;;;3.58;;
24153;SDS011;12312;53.362;-1.518;2022-08-19T06:02:59;17.98;;;3.47;;
24153;SDS011;12312;53.362;-1.518;2022-08-19T06:05:29;16.30;;;3.17;;
24153;SDS011;12312;53.362;-1.518;2022-08-19T06:07:55;20.52;;;3.63;;
24153;SDS011;12312;53.362;-1.518;2022-08-19T06:10:21;16.17;;;3.25;;
24153;SDS011;12312;53.362;-1.518;2022-08-19T06:12:47;18.65;;;3.35;;
24153;SDS011;12312;53.362;-1.518;2022-08-19T06:15:13;18.20;;;3.42;;
24153;SDS011;12312;53.362;-1.518;2022-08-19T06:17:40;15.75;;;3.15;;
24153;SDS011;12312;53.362;-1.518;2022-08-19T06:20:07;18.48;;;3.33;;
24153;SDS011;12312;53.362;-1.518;2022-08-19T06:22:37;25.88;;;3.47;;
24153;SDS011;12312;53.362;-1.518;2022-08-19T06:25:06;19.50;;;3.55;;
24153;SDS011;12312;53.362;-1.518;2022-08-19T06:27:34;21.65;;;4.03;;
24153;SDS011;12312;53.362;-1.518;2022-08-19T06:30:00;14.95;;;2.85;;
24153;SDS011;12312;53.362;-1.518;2022-08-19T06:32:26;20.73;;;3.63;;
24153;SDS011;12312;53.362;-1.518;2022-08-19T06:34:52;24.35;;;3.90;;
24153;SDS011;12312;53.362;-1.518;2022-08-19T06:37:18;16.63;;;3.67;;
24153;SDS011;12312;53.362;-1.518;2022-08-19T06:39:44;21.55;;;3.63;;
24153;SDS011;12312;53.362;-1.518;2022-08-19T06:42:11;18.70;;;3.35;;
24153;SDS011;12312;53.362;-1.518;2022-08-19T06:44:41;19.20;;;3.40;;
24153;SDS011;12312;53.362;-1.518;2022-08-19T06:47:12;18.20;;;3.30;;
24153;SDS011;12312;53.362;-1.518;2022-08-19T06:49:39;17.05;;;3.22;;
24153;SDS011;12312;53.362;-1.518;2022-08-19T06:52:05;20.83;;;2.85;;
24153;SDS011;12312;53.362;-1.518;2022-08-19T06:54:31;18.38;;;3.28;;
24153;SDS011;12312;53.362;-1.518;2022-08-19T06:56:58;15.02;;;3.65;;
24153;SDS011;12312;53.362;-1.518;2022-08-19T06:59:27;23.13;;;3.67;;
24153;SDS011;12312;53.362;-1.518;2022-08-19T07:01:56;13.43;;;2.90;;
24153;SDS011;12312;53.362;-1.518;2022-08-19T07:04:24;23.05;;;3.83;;
24153;SDS011;12312;53.362;-1.518;2022-08-19T07:07:13;20.35;;;3.67;;
24153;SDS011;12312;53.362;-1.518;2022-08-19T07:12:08;17.58;;;3.10;;
24153;SDS011;12312;53.362;-1.518;2022-08-19T07:14:35;20.42;;;3.17;;
24153;SDS011;12312;53.362;-1.518;2022-08-19T07:17:03;27.80;;;3.85;;
24153;SDS011;12312;53.362;-1.518;2022-08-19T07:19:31;17.45;;;3.30;;
24153;SDS011;12312;53.362;-1.518;2022-08-19T07:21:57;19.75;;;3.30;;
24153;SDS011;12312;53.362;-1.518;2022-08-19T07:24:25;16.35;;;3.00;;
24153;SDS011;12312;53.362;-1.518;2022-08-19T07:26:52;24.25;;;3.58;;
24153;SDS011;12312;53.362;-1.518;2022-08-19T07:29:20;17.80;;;3.30;;
24153;SDS011;12312;53.362;-1.518;2022-08-19T07:31:48;17.83;;;3.08;;
24153;SDS011;12312;53.362;-1.518;2022-08-19T07:34:15;19.88;;;3.13;;
24153;SDS011;12312;53.362;-1.518;2022-08-19T07:39:34;20.63;;;3.15;;
24153;SDS011;12312;53.362;-1.518;2022-08-19T07:42:02;19.27;;;3.67;;
24153;SDS011;12312;53.362;-1.518;2022-08-19T07:44:32;19.20;;;3.88;;
24153;SDS011;12312;53.362;-1.518;2022-08-19T07:46:59;24.92;;;4.30;;
24153;SDS011;12312;53.362;-1.518;2022-08-19T07:49:26;20.02;;;3.85;;
24153;SDS011;12312;53.362;-1.518;2022-08-19T07:51:59;18.70;;;4.03;;
24153;SDS011;12312;53.362;-1.518;2022-08-19T07:54:32;20.48;;;3.40;;
24153;SDS011;12312;53.362;-1.518;2022-08-19T07:57:01;20.25;;;3.67;;
24153;SDS011;12312;53.362;-1.518;2022-08-19T07:59:28;22.02;;;3.25;;
24153;SDS011;12312;53.362;-1.518;2022-08-19T08:01:54;16.60;;;3.08;;
24153;SDS011;12312;53.362;-1.518;2022-08-19T08:04:20;15.13;;;3.10;;
24153;SDS011;12312;53.362;-1.518;2022-08-19T08:07:05;18.85;;;3.50;;
24153;SDS011;12312;53.362;-1.518;2022-08-19T08:09:50;17.45;;;3.60;;
24153;SDS011;12312;53.362;-1.518;2022-08-19T08:12:38;18.92;;;3.55;;
24153;SDS011;12312;53.362;-1.518;2022-08-19T08:15:09;15.68;;;2.83;;
24153;SDS011;12312;53.362;-1.518;2022-08-19T08:17:41;18.70;;;3.50;;
24153;SDS011;12312;53.362;-1.518;2022-08-19T08:20:08;18.27;;;4.50;;
24153;SDS011;12312;53.362;-1.518;2022-08-19T08:22:35;17.42;;;3.00;;
24153;SDS011;12312;53.362;-1.518;2022-08-19T08:25:20;17.85;;;3.40;;
24153;SDS011;12312;53.362;-1.518;2022-08-19T08:27:47;14.10;;;3.00;;
24153;SDS011;12312;53.362;-1.518;2022-08-19T08:30:21;11.65;;;3.05;;
24153;SDS011;12312;53.362;-1.518;2022-08-19T08:32:49;18.25;;;2.97;;
24153;SDS011;12312;53.362;-1.518;2022-08-19T08:35:16;15.05;;;3.45;;
24153;SDS011;12312;53.362;-1.518;2022-08-19T08:37:46;15.90;;;2.67;;
24153;SDS011;12312;53.362;-1.518;2022-08-19T08:40:18;14.50;;;2.40;;
24153;SDS011;12312;53.362;-1.518;2022-08-19T08:48:33;13.68;;;2.63;;
24153;SDS011;12312;53.362;-1.518;2022-08-19T08:51:15;15.52;;;2.80;;
24153;SDS011;12312;53.362;-1.518;2022-08-19T08:53:46;20.33;;;3.33;;
24153;SDS011;12312;53.362;-1.518;2022-08-19T08:56:16;12.52;;;3.03;;
24153;SDS011;12312;53.362;-1.518;2022-08-19T09:01:20;15.55;;;2.40;;
24153;SDS011;12312;53.362;-1.518;2022-08-19T09:03:45;19.17;;;3.03;;
24153;SDS011;12312;53.362;-1.518;2022-08-19T09:09:01;17.45;;;2.22;;
24153;SDS011;12312;53.362;-1.518;2022-08-19T09:17:21;13.27;;;2.35;;
24153;SDS011;12312;53.362;-1.518;2022-08-19T09:20:02;19.23;;;3.88;;
24153;SDS011;12312;53.362;-1.518;2022-08-19T09:22:38;13.30;;;2.20;;
24153;SDS011;12312;53.362;-1.518;2022-08-19T09:25:07;15.10;;;2.72;;
24153;SDS011;12312;53.362;-1.518;2022-08-19T09:27:35;15.18;;;2.65;;
24153;SDS011;12312;53.362;-1.518;2022-08-19T09:30:04;17.15;;;2.63;;
24153;SDS011;12312;53.362;-1.518;2022-08-19T09:32:31;16.60;;;2.33;;
24153;SDS011;12312;53.362;-1.518;2022-08-19T09:34:56;16.30;;;2.60;;
24153;SDS011;12312;53.362;-1.518;2022-08-19T09:37:23;12.18;;;2.53;;
24153;SDS011;12312;53.362;-1.518;2022-08-19T09:39:51;15.35;;;2.40;;
24153;SDS011;12312;53.362;-1.518;2022-08-19T09:42:16;15.30;;;2.75;;
24153;SDS011;12312;53.362;-1.518;2022-08-19T09:44:43;13.75;;;2.65;;
24153;SDS011;12312;53.362;-1.518;2022-08-19T09:47:10;19.25;;;2.47;;
24153;SDS011;12312;53.362;-1.518;2022-08-19T09:49:37;16.67;;;2.40;;
24153;SDS011;12312;53.362;-1.518;2022-08-19T09:52:04;13.20;;;2.75;;
24153;SDS011;12312;53.362;-1.518;2022-08-19T09:54:32;11.57;;;2.15;;
24153;SDS011;12312;53.362;-1.518;2022-08-19T09:56:59;15.52;;;2.28;;
24153;SDS011;12312;53.362;-1.518;2022-08-19T09:59:27;14.65;;;2.42;;
24153;SDS011;12312;53.362;-1.518;2022-08-19T10:01:54;13.80;;;2.13;;
24153;SDS011;12312;53.362;-1.518;2022-08-19T10:04:20;13.50;;;2.42;;
24153;SDS011;12312;53.362;-1.518;2022-08-19T10:06:46;10.98;;;2.17;;
24153;SDS011;12312;53.362;-1.518;2022-08-19T10:09:14;14.57;;;2.28;;
24153;SDS011;12312;53.362;-1.518;2022-08-19T10:11:42;12.27;;;2.13;;
24153;SDS011;12312;53.362;-1.518;2022-08-19T10:14:15;15.10;;;2.70;;
24153;SDS011;12312;53.362;-1.518;2022-08-19T10:16:42;18.60;;;2.22;;
24153;SDS011;12312;53.362;-1.518;2022-08-19T10:19:08;13.57;;;1.95;;
24153;SDS011;12312;53.362;-1.518;2022-08-19T10:21:34;13.70;;;2.22;;
24153;SDS011;12312;53.362;-1.518;2022-08-19T10:24:02;10.73;;;1.92;;
24153;SDS011;12312;53.362;-1.518;2022-08-19T10:26:34;11.15;;;2.63;;
24153;SDS011;12312;53.362;-1.518;2022-08-19T10:29:02;11.93;;;1.88;;
24153;SDS011;12312;53.362;-1.518;2022-08-19T10:31:30;12.20;;;2.40;;
24153;SDS011;12312;53.362;-1.518;2022-08-19T10:33:58;14.98;;;2.10;;
24153;SDS011;12312;53.362;-1.518;2022-08-19T10:36:29;10.80;;;2.20;;
24153;SDS011;12312;53.362;-1.518;2022-08-19T10:38:58;9.00;;;2.25;;
24153;SDS011;12312;53.362;-1.518;2022-08-19T10:41:27;12.43;;;2.17;;
24153;SDS011;12312;53.362;-1.518;2022-08-19T10:43:57;11.52;;;2.72;;
24153;SDS011;12312;53.362;-1.518;2022-08-19T10:46:25;8.93;;;2.70;;
24153;SDS011;12312;53.362;-1.518;2022-08-19T10:48:52;13.98;;;2.53;;
24153;SDS011;12312;53.362;-1.518;2022-08-19T10:51:19;11.52;;;2.15;;
24153;SDS011;12312;53.362;-1.518;2022-08-19T10:54:04;13.30;;;2.72;;
24153;SDS011;12312;53.362;-1.518;2022-08-19T10:56:31;10.90;;;2.03;;
24153;SDS011;12312;53.362;-1.518;2022-08-19T11:01:44;15.48;;;2.78;;
24153;SDS011;12312;53.362;-1.518;2022-08-19T11:04:11;14.80;;;2.50;;
24153;SDS011;12312;53.362;-1.518;2022-08-19T11:06:42;10.63;;;2.20;;
24153;SDS011;12312;53.362;-1.518;2022-08-19T11:09:08;11.38;;;2.40;;
24153;SDS011;12312;53.362;-1.518;2022-08-19T11:11:37;19.05;;;3.22;;
24153;SDS011;12312;53.362;-1.518;2022-08-19T11:14:06;11.77;;;2.45;;
24153;SDS011;12312;53.362;-1.518;2022-08-19T11:16:33;8.23;;;1.55;;
24153;SDS011;12312;53.362;-1.518;2022-08-19T11:18:59;10.75;;;1.98;;
24153;SDS011;12312;53.362;-1.518;2022-08-19T11:21:32;9.20;;;1.40;;
24153;SDS011;12312;53.362;-1.518;2022-08-19T11:24:00;8.70;;;1.50;;
24153;SDS011;12312;53.362;-1.518;2022-08-19T11:26:31;9.18;;;1.63;;
24153;SDS011;12312;53.362;-1.518;2022-08-19T11:28:58;9.13;;;1.42;;
24153;SDS011;12312;53.362;-1.518;2022-08-19T11:31:26;13.30;;;2.28;;
24153;SDS011;12312;53.362;-1.518;2022-08-19T11:33:59;10.13;;;1.75;;
24153;SDS011;12312;53.362;-1.518;2022-08-19T11:36:26;5.65;;;1.30;;
24153;SDS011;12312;53.362;-1.518;2022-08-19T11:38:53;9.35;;;1.30;;
24153;SDS011;12312;53.362;-1.518;2022-08-19T11:41:20;6.95;;;1.30;;
24153;SDS011;12312;53.362;-1.518;2022-08-19T11:43:51;5.55;;;1.10;;
24153;SDS011;12312;53.362;-1.518;2022-08-19T11:46:19;8.80;;;1.63;;
24153;SDS011;12312;53.362;-1.518;2022-08-19T11:48:45;5.70;;;1.33;;
24153;SDS011;12312;53.362;-1.518;2022-08-19T11:51:13;8.75;;;1.55;;
24153;SDS011;12312;53.362;-1.518;2022-08-19T11:53:41;7.63;;;1.60;;
24153;SDS011;12312;53.362;-1.518;2022-08-19T11:56:08;8.25;;;1.73;;
24153;SDS011;12312;53.362;-1.518;2022-08-19T11:58:35;6.43;;;1.70;;
24153;SDS011;12312;53.362;-1.518;2022-08-19T12:01:05;6.60;;;1.40;;
24153;SDS011;12312;53.362;-1.518;2022-08-19T12:03:33;8.65;;;1.60;;
24153;SDS011;12312;53.362;-1.518;2022-08-19T12:06:03;7.38;;;1.60;;
24153;SDS011;12312;53.362;-1.518;2022-08-19T12:08:30;8.13;;;1.60;;
24153;SDS011;12312;53.362;-1.518;2022-08-19T12:10:56;10.82;;;2.17;;
24153;SDS011;12312;53.362;-1.518;2022-08-19T12:13:22;10.00;;;1.92;;
24153;SDS011;12312;53.362;-1.518;2022-08-19T12:15:48;10.05;;;1.75;;
24153;SDS011;12312;53.362;-1.518;2022-08-19T12:18:13;6.13;;;1.70;;
24153;SDS011;12312;53.362;-1.518;2022-08-19T12:20:42;6.97;;;1.60;;
24153;SDS011;12312;53.362;-1.518;2022-08-19T12:23:10;10.10;;;1.80;;
24153;SDS011;12312;53.362;-1.518;2022-08-19T12:25:37;10.52;;;1.73;;
24153;SDS011;12312;53.362;-1.518;2022-08-19T12:28:08;12.18;;;2.00;;
24153;SDS011;12312;53.362;-1.518;2022-08-19T12:30:34;7.25;;;1.55;;
24153;SDS011;12312;53.362;-1.518;2022-08-19T12:33:03;9.65;;;2.05;;
24153;SDS011;12312;53.362;-1.518;2022-08-19T12:35:28;11.02;;;1.83;;
24153;SDS011;12312;53.362;-1.518;2022-08-19T12:37:55;6.57;;;1.70;;
24153;SDS011;12312;53.362;-1.518;2022-08-19T12:40:21;7.43;;;1.30;;
24153;SDS011;12312;53.362;-1.518;2022-08-19T12:42:46;8.10;;;1.40;;
24153;SDS011;12312;53.362;-1.518;2022-08-19T12:48:08;6.90;;;1.20;;
24153;SDS011;12312;53.362;-1.518;2022-08-19T12:50:34;4.97;;;0.70;;
24153;SDS011;12312;53.362;-1.518;2022-08-19T12:53:00;3.10;;;0.70;;
24153;SDS011;12312;53.362;-1.518;2022-08-19T12:55:26;5.78;;;0.70;;
24153;SDS011;12312;53.362;-1.518;2022-08-19T12:57:54;3.83;;;0.77;;
24153;SDS011;12312;53.362;-1.518;2022-08-19T13:00:20;7.53;;;1.00;;
24153;SDS011;12312;53.362;-1.518;2022-08-19T13:02:48;3.85;;;0.85;;
24153;SDS011;12312;53.362;-1.518;2022-08-19T13:05:19;6.13;;;0.95;;
24153;SDS011;12312;53.362;-1.518;2022-08-19T13:07:48;4.72;;;0.90;;
24153;SDS011;12312;53.362;-1.518;2022-08-19T13:10:17;4.95;;;0.73;;
24153;SDS011;12312;53.362;-1.518;2022-08-19T13:12:45;2.75;;;0.80;;
24153;SDS011;12312;53.362;-1.518;2022-08-19T13:15:13;4.07;;;0.70;;
24153;SDS011;12312;53.362;-1.518;2022-08-19T13:17:40;2.38;;;0.57;;
24153;SDS011;12312;53.362;-1.518;2022-08-19T13:20:07;5.22;;;0.65;;
24153;SDS011;12312;53.362;-1.518;2022-08-19T13:22:34;3.65;;;0.73;;
24153;SDS011;12312;53.362;-1.518;2022-08-19T13:25:01;3.15;;;0.68;;
24153;SDS011;12312;53.362;-1.518;2022-08-19T13:27:28;5.95;;;0.60;;
24153;SDS011;12312;53.362;-1.518;2022-08-19T13:29:54;3.20;;;0.68;;
24153;SDS011;12312;53.362;-1.518;2022-08-19T13:32:38;5.18;;;0.95;;
24153;SDS011;12312;53.362;-1.518;2022-08-19T13:35:22;3.13;;;0.63;;
24153;SDS011;12312;53.362;-1.518;2022-08-19T13:37:48;2.83;;;0.60;;
24153;SDS011;12312;53.362;-1.518;2022-08-19T13:40:18;3.55;;;0.70;;
24153;SDS011;12312;53.362;-1.518;2022-08-19T13:42:48;2.83;;;0.60;;
24153;SDS011;12312;53.362;-1.518;2022-08-19T13:45:16;4.65;;;1.13;;
24153;SDS011;12312;53.362;-1.518;2022-08-19T13:47:52;2.70;;;0.68;;
24153;SDS011;12312;53.362;-1.518;2022-08-19T13:50:21;3.30;;;1.23;;
24153;SDS011;12312;53.362;-1.518;2022-08-19T13:52:51;5.43;;;0.80;;
24153;SDS011;12312;53.362;-1.518;2022-08-19T13:55:18;5.07;;;0.90;;
24153;SDS011;12312;53.362;-1.518;2022-08-19T13:57:45;4.60;;;0.77;;
24153;SDS011;12312;53.362;-1.518;2022-08-19T14:00:16;7.90;;;0.73;;
24153;SDS011;12312;53.362;-1.518;2022-08-19T14:02:43;5.20;;;1.00;;
24153;SDS011;12312;53.362;-1.518;2022-08-19T14:05:11;4.15;;;0.50;;
24153;SDS011;12312;53.362;-1.518;2022-08-19T14:07:38;6.70;;;0.82;;
24153;SDS011;12312;53.362;-1.518;2022-08-19T14:10:04;4.00;;;0.60;;
24153;SDS011;12312;53.362;-1.518;2022-08-19T14:12:32;6.20;;;1.10;;
24153;SDS011;12312;53.362;-1.518;2022-08-19T14:14:58;5.88;;;0.73;;
24153;SDS011;12312;53.362;-1.518;2022-08-19T14:17:24;6.47;;;0.70;;
24153;SDS011;12312;53.362;-1.518;2022-08-19T14:19:55;3.78;;;0.90;;
24153;SDS011;12312;53.362;-1.518;2022-08-19T14:22:22;4.82;;;0.70;;
24153;SDS011;12312;53.362;-1.518;2022-08-19T14:24:48;4.47;;;0.80;;
24153;SDS011;12312;53.362;-1.518;2022-08-19T14:27:15;5.80;;;0.95;;
24153;SDS011;12312;53.362;-1.518;2022-08-19T14:29:41;4.03;;;1.00;;
24153;SDS011;12312;53.362;-1.518;2022-08-19T14:32:07;3.83;;;0.80;;
24153;SDS011;12312;53.362;-1.518;2022-08-19T14:34:32;5.65;;;1.15;;
24153;SDS011;12312;53.362;-1.518;2022-08-19T14:36:58;2.92;;;0.90;;
24153;SDS011;12312;53.362;-1.518;2022-08-19T14:39:25;5.32;;;0.98;;
24153;SDS011;12312;53.362;-1.518;2022-08-19T14:41:51;3.88;;;0.60;;
24153;SDS011;12312;53.362;-1.518;2022-08-19T14:44:17;5.15;;;0.90;;
24153;SDS011;12312;53.362;-1.518;2022-08-19T14:46:43;3.65;;;0.80;;
24153;SDS011;12312;53.362;-1.518;2022-08-19T14:49:10;4.40;;;1.17;;
24153;SDS011;12312;53.362;-1.518;2022-08-19T14:51:36;6.00;;;0.73;;
24153;SDS011;12312;53.362;-1.518;2022-08-19T14:54:02;2.53;;;0.63;;
24153;SDS011;12312;53.362;-1.518;2022-08-19T14:56:28;7.00;;;0.80;;
24153;SDS011;12312;53.362;-1.518;2022-08-19T14:58:55;5.15;;;0.90;;
24153;SDS011;12312;53.362;-1.518;2022-08-19T15:01:24;3.08;;;0.80;;
24153;SDS011;12312;53.362;-1.518;2022-08-19T15:03:50;4.38;;;0.98;;